createdAt,value
2022-12-03T00:00:17.054Z,12.85
2022-12-03T00:02:43.603Z,12.63
2022-12-03T00:05:10.724Z,13.82
2022-12-03T00:07:37.405Z,14.02
2022-12-03T00:10:04.810Z,13.65
2022-12-03T00:12:31.264Z,13.48
2022-12-03T00:14:58.062Z,14.05
2022-12-03T00:17:24.782Z,14.63
2022-12-03T00:19:51.250Z,13.32
2022-12-03T00:22:17.803Z,11.55
2022-12-03T00:24:44.305Z,13.25
2022-12-03T00:27:10.778Z,14.88
2022-12-03T00:29:38.439Z,12.75
2022-12-03T00:32:05.140Z,13.98
2022-12-03T00:34:31.596Z,12.95
2022-12-03T00:36:58.096Z,13.70
2022-12-03T00:39:24.600Z,12.23
2022-12-03T00:41:51.158Z,13.13
2022-12-03T00:44:17.725Z,14.35
2022-12-03T00:46:44.415Z,13.07
2022-12-03T00:49:10.992Z,12.25
2022-12-03T00:51:37.522Z,13.13
2022-12-03T00:54:04.155Z,11.63
2022-12-03T00:56:30.637Z,13.82
2022-12-03T00:58:57.114Z,12.10
2022-12-03T01:01:23.691Z,14.80
2022-12-03T01:03:50.206Z,13.77
2022-12-03T01:06:16.866Z,13.57
2022-12-03T01:08:43.422Z,13.43
2022-12-03T01:11:29.904Z,14.73
2022-12-03T01:13:56.406Z,14.50
2022-12-03T01:16:23.091Z,13.15
2022-12-03T01:18:52.241Z,12.90
2022-12-03T01:21:19.365Z,13.48
2022-12-03T01:23:46.254Z,13.95
2022-12-03T01:26:12.859Z,13.20
2022-12-03T01:28:41.676Z,13.45
2022-12-03T01:31:28.565Z,12.77
2022-12-03T01:33:55.383Z,14.73
2022-12-03T01:36:22.170Z,13.32
2022-12-03T01:38:48.927Z,13.93
2022-12-03T01:41:17.391Z,13.70
2022-12-03T01:43:44.235Z,14.80
2022-12-03T01:46:13.944Z,13.32
2022-12-03T01:48:40.995Z,11.93
2022-12-03T01:51:07.562Z,13.82
2022-12-03T01:53:34.235Z,14.30
2022-12-03T01:56:00.728Z,13.10
2022-12-03T01:58:28.831Z,14.88
2022-12-03T02:00:57.436Z,14.27
2022-12-03T02:03:25.908Z,14.75
2022-12-03T02:05:52.753Z,13.93
2022-12-03T02:08:36.667Z,13.43
2022-12-03T02:11:14.359Z,12.75
2022-12-03T02:13:41.074Z,12.73
2022-12-03T02:16:08.092Z,12.52
2022-12-03T02:18:34.769Z,13.32
2022-12-03T02:21:13.068Z,14.13
2022-12-03T02:24:09.232Z,15.07
2022-12-03T02:26:35.812Z,13.25
2022-12-03T02:29:02.628Z,14.70
2022-12-03T02:31:29.543Z,14.70
2022-12-03T02:33:56.111Z,14.15
2022-12-03T02:36:22.747Z,12.98
2022-12-03T02:38:49.513Z,15.02
2022-12-03T02:41:37.447Z,13.90
2022-12-03T02:44:06.169Z,14.75
2022-12-03T02:46:33.181Z,14.13
2022-12-03T02:48:59.922Z,13.93
2022-12-03T02:51:26.782Z,14.02
2022-12-03T02:53:53.817Z,14.38
2022-12-03T02:56:24.346Z,14.70
2022-12-03T02:58:53.226Z,13.13
2022-12-03T03:01:19.820Z,14.55
2022-12-03T03:03:47.211Z,14.02
2022-12-03T03:06:14.975Z,14.10
2022-12-03T03:08:42.191Z,15.50
2022-12-03T03:11:08.659Z,15.68
2022-12-03T03:13:35.478Z,13.90
2022-12-03T03:16:04.347Z,15.05
2022-12-03T03:18:31.891Z,13.70
2022-12-03T03:20:59.028Z,14.73
2022-12-03T03:23:25.941Z,15.63
2022-12-03T03:26:12.393Z,14.18
2022-12-03T03:28:41.711Z,14.98
2022-12-03T03:31:09.576Z,14.10
2022-12-03T03:33:38.000Z,15.38
2022-12-03T03:36:04.956Z,14.80
2022-12-03T03:38:32.006Z,14.07
2022-12-03T03:40:59.655Z,16.48
2022-12-03T03:43:26.969Z,16.08
2022-12-03T03:45:53.782Z,14.73
2022-12-03T03:48:21.072Z,14.63
2022-12-03T03:50:48.286Z,14.13
2022-12-03T03:53:15.227Z,15.75
2022-12-03T03:55:41.766Z,15.70
2022-12-03T03:58:08.446Z,14.50
2022-12-03T04:00:36.518Z,16.73
2022-12-03T04:03:06.234Z,15.98
2022-12-03T04:05:33.281Z,15.00
2022-12-03T04:08:00.054Z,15.70
2022-12-03T04:10:45.151Z,15.23
2022-12-03T04:13:11.667Z,16.00
2022-12-03T04:15:38.176Z,14.63
2022-12-03T04:18:23.610Z,14.43
2022-12-03T04:20:50.455Z,14.52
2022-12-03T04:23:16.974Z,15.70
2022-12-03T04:26:02.235Z,15.80
2022-12-03T04:28:47.200Z,15.68
2022-12-03T04:31:32.400Z,16.92
2022-12-03T04:34:17.173Z,15.48
2022-12-03T04:36:43.745Z,13.68
2022-12-03T04:39:10.239Z,15.50
2022-12-03T04:41:36.753Z,16.30
2022-12-03T04:44:21.694Z,15.05
2022-12-03T04:46:48.144Z,15.38
2022-12-03T04:49:15.835Z,15.82
2022-12-03T04:51:42.290Z,14.52
2022-12-03T04:54:08.857Z,15.57
2022-12-03T04:56:35.342Z,14.40
2022-12-03T04:59:01.980Z,15.75
2022-12-03T05:01:28.720Z,15.30
2022-12-03T05:03:55.547Z,15.30
2022-12-03T05:06:22.160Z,16.05
2022-12-03T05:08:48.686Z,15.50
2022-12-03T05:11:15.340Z,13.98
2022-12-03T05:13:43.089Z,13.98
2022-12-03T05:16:10.080Z,14.18
2022-12-03T05:18:36.758Z,15.95
2022-12-03T05:21:03.507Z,14.57
2022-12-03T05:23:30.495Z,16.65
2022-12-03T05:25:56.967Z,14.82
2022-12-03T05:28:24.222Z,14.15
2022-12-03T05:30:51.470Z,13.68
2022-12-03T05:33:18.055Z,15.30
2022-12-03T05:35:44.691Z,14.02
2022-12-03T05:38:11.283Z,15.38
2022-12-03T05:40:37.917Z,16.55
2022-12-03T05:43:04.661Z,15.77
2022-12-03T05:45:32.326Z,15.27
2022-12-03T05:48:00.108Z,15.07
2022-12-03T05:50:28.503Z,15.50
2022-12-03T05:52:55.661Z,16.40
2022-12-03T05:55:22.452Z,13.65
2022-12-03T05:57:48.989Z,15.55
2022-12-03T06:00:18.488Z,14.65
2022-12-03T06:03:00.222Z,13.40
2022-12-03T06:05:26.904Z,14.35
2022-12-03T06:07:53.578Z,15.30
2022-12-03T06:10:23.296Z,14.02
2022-12-03T06:12:49.936Z,15.43
2022-12-03T06:15:16.747Z,12.55
2022-12-03T06:17:43.286Z,14.27
2022-12-03T06:20:13.715Z,14.38
2022-12-03T06:22:40.252Z,15.50
2022-12-03T06:25:07.484Z,14.98
2022-12-03T06:27:34.204Z,15.73
2022-12-03T06:30:00.691Z,14.90
2022-12-03T06:32:27.156Z,14.43
2022-12-03T06:34:53.912Z,16.08
2022-12-03T06:37:20.605Z,13.70
2022-12-03T06:39:47.149Z,14.95
2022-12-03T06:42:13.676Z,15.20
2022-12-03T06:44:40.151Z,15.38
2022-12-03T06:47:06.680Z,15.25
2022-12-03T06:49:33.282Z,15.77
2022-12-03T06:51:59.855Z,15.07
2022-12-03T06:54:26.347Z,15.52
2022-12-03T06:56:53.022Z,15.48
2022-12-03T06:59:19.478Z,14.88
2022-12-03T07:01:46.055Z,15.95
2022-12-03T07:04:12.693Z,15.05
2022-12-03T07:06:39.269Z,14.35
2022-12-03T07:09:05.841Z,14.13
2022-12-03T07:11:32.355Z,14.88
2022-12-03T07:14:05.179Z,14.43
2022-12-03T07:16:32.999Z,16.45
2022-12-03T07:18:59.645Z,15.20
2022-12-03T07:21:26.152Z,15.63
2022-12-03T07:23:52.707Z,16.52
2022-12-03T07:26:19.494Z,17.63
2022-12-03T07:28:48.086Z,16.00
2022-12-03T07:31:15.010Z,14.45
2022-12-03T07:33:41.733Z,15.95
2022-12-03T07:36:08.919Z,15.48
2022-12-03T07:38:35.485Z,14.88
2022-12-03T07:41:01.996Z,16.10
2022-12-03T07:43:28.525Z,15.00
2022-12-03T07:45:55.101Z,14.57
2022-12-03T07:48:21.623Z,15.68
2022-12-03T07:50:48.137Z,16.38
2022-12-03T07:53:15.369Z,15.70
2022-12-03T07:55:42.001Z,16.92
2022-12-03T07:58:09.264Z,13.93
2022-12-03T08:00:35.881Z,14.50
2022-12-03T08:03:02.454Z,16.23
2022-12-03T08:05:29.593Z,15.02
2022-12-03T08:07:56.379Z,12.80
2022-12-03T08:10:23.933Z,13.95
2022-12-03T08:12:50.443Z,14.43
2022-12-03T08:15:23.895Z,13.57
2022-12-03T08:18:01.736Z,13.35
2022-12-03T08:20:33.270Z,14.00
2022-12-03T08:23:06.128Z,14.55
2022-12-03T08:25:33.307Z,14.50
2022-12-03T08:28:13.473Z,13.00
2022-12-03T08:30:41.463Z,13.43
2022-12-03T08:33:40.344Z,14.00
2022-12-03T08:36:15.191Z,12.93
2022-12-03T08:38:43.984Z,13.73
2022-12-03T08:41:13.935Z,13.65
2022-12-03T08:43:42.756Z,12.40
2022-12-03T08:46:18.093Z,13.70
2022-12-03T08:48:49.098Z,13.57
2022-12-03T08:51:22.183Z,13.23
2022-12-03T08:53:59.780Z,13.35
2022-12-03T08:56:30.042Z,12.80
2022-12-03T08:59:20.132Z,12.68
2022-12-03T09:01:47.409Z,13.90
2022-12-03T09:04:21.958Z,14.43
2022-12-03T09:06:48.873Z,12.98
2022-12-03T09:09:15.562Z,12.88
2022-12-03T09:11:43.205Z,13.25
2022-12-03T09:14:15.087Z,12.85
2022-12-03T09:16:44.871Z,9.85
2022-12-03T09:19:11.444Z,13.95
2022-12-03T09:21:37.951Z,13.40
2022-12-03T09:24:04.592Z,14.90
2022-12-03T09:26:31.110Z,13.15
2022-12-03T09:28:57.573Z,13.10
2022-12-03T09:31:24.482Z,14.55
2022-12-03T09:33:51.089Z,13.82
2022-12-03T09:36:17.621Z,14.20
2022-12-03T09:38:47.745Z,13.93
2022-12-03T09:41:14.936Z,14.77
2022-12-03T09:44:03.132Z,13.60
2022-12-03T09:46:29.098Z,14.10
2022-12-03T09:48:55.851Z,15.98
2022-12-03T09:51:24.572Z,15.50
2022-12-03T09:53:51.058Z,13.55
2022-12-03T09:56:22.089Z,14.10
2022-12-03T09:58:49.649Z,15.15
2022-12-03T10:01:16.773Z,14.35
2022-12-03T10:03:49.779Z,15.65
2022-12-03T10:06:22.427Z,13.50
2022-12-03T10:08:52.015Z,15.05
2022-12-03T10:11:19.999Z,13.90
2022-12-03T10:13:47.184Z,15.15
2022-12-03T10:16:16.183Z,15.07
2022-12-03T10:18:47.186Z,13.57
2022-12-03T10:21:19.104Z,16.08
2022-12-03T10:23:49.575Z,16.13
2022-12-03T10:26:18.771Z,16.42
2022-12-03T10:28:47.445Z,14.40
2022-12-03T10:31:14.338Z,15.50
2022-12-03T10:33:44.639Z,16.77
2022-12-03T10:36:24.217Z,16.57
2022-12-03T10:39:15.767Z,12.85
2022-12-03T10:41:44.044Z,16.98
2022-12-03T10:44:20.219Z,15.43
2022-12-03T10:47:05.738Z,15.77
2022-12-03T10:49:32.529Z,14.93
2022-12-03T10:51:59.273Z,16.52
2022-12-03T10:54:26.139Z,14.93
2022-12-03T10:56:52.974Z,15.05
2022-12-03T10:59:22.063Z,15.38
2022-12-03T11:01:49.394Z,16.02
2022-12-03T11:04:31.891Z,15.98
2022-12-03T11:06:58.670Z,14.90
2022-12-03T11:09:27.889Z,15.85
2022-12-03T11:11:54.648Z,15.50
2022-12-03T11:14:49.331Z,17.02
2022-12-03T11:17:51.468Z,14.82
2022-12-03T11:20:22.822Z,15.23
2022-12-03T11:22:50.888Z,15.88
2022-12-03T11:25:26.645Z,16.10
2022-12-03T11:28:11.631Z,15.98
2022-12-03T11:31:01.341Z,14.63
2022-12-03T11:33:39.247Z,13.60
2022-12-03T11:36:05.805Z,15.70
2022-12-03T11:38:41.314Z,15.88
2022-12-03T11:41:13.012Z,15.90
2022-12-03T11:43:56.369Z,15.75
2022-12-03T11:46:37.813Z,16.23
2022-12-03T11:49:29.213Z,16.05
2022-12-03T11:54:23.644Z,14.77
2022-12-03T11:56:50.825Z,17.30
2022-12-03T11:59:18.360Z,16.58
2022-12-03T12:01:45.531Z,16.77
2022-12-03T12:04:48.754Z,17.88
2022-12-03T12:07:34.255Z,17.77
2022-12-03T12:10:00.875Z,17.23
2022-12-03T12:12:54.327Z,17.88
2022-12-03T12:15:43.280Z,17.25
2022-12-03T12:18:38.815Z,18.20
2022-12-03T12:21:43.086Z,17.65
2022-12-03T12:24:32.548Z,15.15
2022-12-03T12:27:00.949Z,16.88
2022-12-03T12:29:27.714Z,15.63
2022-12-03T12:32:13.235Z,17.52
2022-12-03T12:34:41.345Z,16.80
2022-12-03T12:37:19.843Z,17.25
2022-12-03T12:39:46.666Z,17.85
2022-12-03T12:42:35.894Z,17.13
2022-12-03T12:45:08.118Z,16.25
2022-12-03T12:47:35.582Z,19.95
2022-12-03T12:50:08.884Z,17.17
2022-12-03T12:52:35.428Z,17.13
2022-12-03T12:55:05.138Z,18.50
2022-12-03T12:57:33.855Z,16.40
2022-12-03T13:00:00.398Z,18.55
2022-12-03T13:02:41.492Z,19.35
2022-12-03T13:05:11.111Z,18.52
2022-12-03T13:07:37.912Z,17.38
2022-12-03T13:10:35.523Z,18.15
2022-12-03T13:13:29.858Z,18.08
2022-12-03T13:16:02.474Z,16.92
2022-12-03T13:18:40.965Z,17.17
2022-12-03T13:21:21.216Z,17.20
2022-12-03T13:23:49.292Z,16.75
2022-12-03T13:26:34.604Z,18.33
2022-12-03T13:29:14.018Z,18.83
2022-12-03T13:34:32.263Z,16.15
2022-12-03T13:37:00.724Z,18.77
2022-12-03T13:39:32.378Z,18.67
2022-12-03T13:42:42.117Z,19.55
2022-12-03T13:45:17.349Z,16.95
2022-12-03T13:47:48.753Z,18.38
2022-12-03T13:50:32.145Z,17.25
2022-12-03T13:53:01.494Z,17.55
2022-12-03T13:55:30.145Z,17.90
2022-12-03T13:57:57.215Z,18.08
2022-12-03T14:00:24.396Z,19.98
2022-12-03T14:02:51.107Z,18.10
2022-12-03T14:05:21.160Z,18.52
2022-12-03T14:07:47.811Z,19.05
2022-12-03T14:10:14.435Z,19.77
2022-12-03T14:12:40.922Z,18.00
2022-12-03T14:15:10.433Z,18.58
2022-12-03T14:17:37.015Z,19.70
2022-12-03T14:20:04.198Z,18.70
2022-12-03T14:22:30.824Z,17.35
2022-12-03T14:24:57.800Z,17.85
2022-12-03T14:27:24.824Z,17.80
2022-12-03T14:29:52.332Z,20.65
2022-12-03T14:32:19.218Z,19.58
2022-12-03T14:34:45.799Z,18.27
2022-12-03T14:37:12.372Z,17.63
2022-12-03T14:39:39.242Z,18.98
2022-12-03T14:42:15.158Z,19.95
2022-12-03T14:44:46.570Z,19.05
2022-12-03T14:47:13.935Z,18.67
2022-12-03T14:49:40.615Z,18.98
2022-12-03T14:52:11.319Z,18.55
2022-12-03T14:54:40.541Z,19.20
2022-12-03T14:57:07.044Z,19.92
2022-12-03T14:59:33.610Z,17.90
2022-12-03T15:02:00.284Z,19.27
2022-12-03T15:04:26.910Z,20.13
2022-12-03T15:06:53.495Z,18.33
2022-12-03T15:09:20.380Z,20.45
2022-12-03T15:11:46.918Z,19.23
2022-12-03T15:14:13.618Z,20.13
2022-12-03T15:16:41.055Z,19.55
2022-12-03T15:19:07.743Z,16.85
2022-12-03T15:21:34.963Z,19.70
2022-12-03T15:24:02.459Z,19.80
2022-12-03T15:26:29.289Z,19.30
2022-12-03T15:28:55.967Z,18.88
2022-12-03T15:31:22.506Z,19.33
2022-12-03T15:33:49.073Z,19.83
2022-12-03T15:36:15.649Z,20.15
2022-12-03T15:38:42.196Z,16.95
2022-12-03T15:41:21.270Z,19.83
2022-12-03T15:43:48.469Z,19.08
2022-12-03T15:46:15.042Z,18.42
2022-12-03T15:48:41.869Z,19.17
2022-12-03T15:51:08.430Z,17.60
2022-12-03T15:53:34.963Z,20.73
2022-12-03T15:56:01.473Z,17.70
2022-12-03T15:58:28.327Z,20.88
2022-12-03T16:00:55.051Z,18.17
2022-12-03T16:03:21.568Z,18.08
2022-12-03T16:05:48.136Z,18.25
2022-12-03T16:08:14.800Z,18.45
2022-12-03T16:10:41.335Z,19.52
2022-12-03T16:13:07.861Z,17.63
2022-12-03T16:15:35.691Z,20.73
2022-12-03T16:18:02.295Z,20.00
2022-12-03T16:20:28.794Z,16.80
2022-12-03T16:22:55.340Z,17.83
2022-12-03T16:25:21.885Z,19.17
2022-12-03T16:27:48.413Z,16.00
2022-12-03T16:30:15.218Z,16.25
2022-12-03T16:32:42.188Z,18.58
2022-12-03T16:35:08.924Z,17.23
2022-12-03T16:37:35.410Z,18.05
2022-12-03T16:40:02.499Z,18.58
2022-12-03T16:42:29.304Z,20.27
2022-12-03T16:45:22.761Z,17.48
2022-12-03T16:47:50.035Z,18.27
2022-12-03T16:50:24.352Z,19.73
2022-12-03T16:52:55.497Z,18.02
2022-12-03T16:55:22.096Z,18.13
2022-12-03T16:57:48.852Z,19.20
2022-12-03T17:00:16.232Z,18.40
2022-12-03T17:02:42.855Z,19.05
2022-12-03T17:05:10.685Z,16.60
2022-12-03T17:07:37.343Z,19.85
2022-12-03T17:10:04.486Z,17.20
2022-12-03T17:12:54.167Z,18.63
2022-12-03T17:15:19.007Z,17.85
2022-12-03T17:17:45.518Z,19.10
2022-12-03T17:20:13.690Z,18.48
2022-12-03T17:22:40.960Z,18.73
2022-12-03T17:25:07.867Z,19.35
2022-12-03T17:27:34.467Z,15.23
2022-12-03T17:30:01.128Z,18.40
2022-12-03T17:32:27.664Z,17.60
2022-12-03T17:34:54.211Z,17.75
2022-12-03T17:37:20.704Z,18.33
2022-12-03T17:39:47.220Z,19.02
2022-12-03T17:42:13.761Z,18.48
2022-12-03T17:44:40.313Z,18.88
2022-12-03T17:47:07.036Z,19.58
2022-12-03T17:49:33.554Z,20.13
2022-12-03T17:52:00.146Z,15.30
2022-12-03T17:54:43.279Z,17.75
2022-12-03T17:57:13.271Z,19.88
2022-12-03T17:59:39.772Z,15.57
2022-12-03T18:02:06.663Z,16.08
2022-12-03T18:04:33.233Z,16.38
2022-12-03T18:07:02.406Z,17.33
2022-12-03T18:09:29.278Z,17.98
2022-12-03T18:11:55.793Z,19.67
2022-12-03T18:14:22.265Z,19.02
2022-12-03T18:16:48.774Z,18.70
2022-12-03T18:19:15.362Z,18.80
2022-12-03T18:21:41.875Z,15.57
2022-12-03T18:24:08.521Z,17.83
2022-12-03T18:26:35.601Z,17.48
2022-12-03T18:29:02.096Z,18.88
2022-12-03T18:31:28.665Z,12.93
2022-12-03T18:33:55.177Z,16.13
2022-12-03T18:36:23.846Z,15.75
2022-12-03T18:38:52.933Z,18.42
2022-12-03T18:41:19.830Z,17.58
2022-12-03T18:43:46.365Z,18.10
2022-12-03T18:46:31.256Z,16.95
2022-12-03T18:49:01.172Z,18.02
2022-12-03T18:51:28.702Z,17.88
2022-12-03T18:53:55.257Z,16.23
2022-12-03T18:56:21.784Z,17.52
2022-12-03T18:58:48.273Z,17.73
2022-12-03T19:01:17.210Z,16.65
2022-12-03T19:03:43.826Z,16.05
2022-12-03T19:06:17.209Z,17.90
2022-12-03T19:08:46.191Z,16.42
2022-12-03T19:11:13.268Z,18.77
2022-12-03T19:13:41.143Z,17.30
2022-12-03T19:16:09.732Z,16.95
2022-12-03T19:18:36.353Z,15.95
2022-12-03T19:21:09.209Z,17.35
2022-12-03T19:23:36.348Z,17.05
2022-12-03T19:26:04.831Z,13.95
2022-12-03T19:28:31.385Z,14.25
2022-12-03T19:31:04.209Z,15.32
2022-12-03T19:33:31.163Z,16.15
2022-12-03T19:35:58.599Z,17.70
2022-12-03T19:38:26.817Z,15.80
2022-12-03T19:41:11.610Z,16.75
2022-12-03T19:43:38.397Z,17.75
2022-12-03T19:46:07.300Z,15.60
2022-12-03T19:48:34.446Z,15.73
2022-12-03T19:51:26.193Z,17.33
2022-12-03T19:53:48.595Z,17.27
2022-12-03T19:56:19.656Z,17.88
2022-12-03T20:01:19.472Z,16.48
2022-12-03T20:03:48.000Z,16.58
2022-12-03T20:06:16.525Z,15.80
2022-12-03T20:08:43.170Z,14.73
2022-12-03T20:11:25.244Z,16.67
2022-12-03T20:13:53.932Z,15.07
2022-12-03T20:16:20.838Z,16.83
2022-12-03T20:18:48.289Z,15.75
2022-12-03T20:21:17.957Z,17.70
2022-12-03T20:23:46.284Z,15.95
2022-12-03T20:26:15.218Z,16.90
2022-12-03T20:28:41.879Z,17.48
2022-12-03T20:31:13.670Z,17.08
2022-12-03T20:33:42.822Z,16.30
2022-12-03T20:36:10.296Z,17.52
2022-12-03T20:38:37.110Z,17.77
2022-12-03T20:41:05.900Z,14.35
2022-12-03T20:43:32.547Z,15.02
2022-12-03T20:46:08.612Z,16.95
2022-12-03T20:48:35.737Z,16.20
2022-12-03T20:51:06.759Z,17.00
2022-12-03T20:53:33.480Z,16.92
2022-12-03T20:56:00.837Z,17.23
2022-12-03T20:58:28.193Z,19.15
2022-12-03T21:00:55.143Z,17.55
2022-12-03T21:03:21.862Z,15.63
2022-12-03T21:05:48.463Z,17.17
2022-12-03T21:08:15.027Z,15.88
2022-12-03T21:10:45.450Z,16.95
2022-12-03T21:13:13.828Z,17.50
2022-12-03T21:15:40.916Z,18.27
2022-12-03T21:18:08.861Z,17.92
2022-12-03T21:20:47.210Z,19.02
2022-12-03T21:23:14.399Z,18.10
2022-12-03T21:25:41.166Z,17.77
2022-12-03T21:28:08.954Z,18.23
2022-12-03T21:30:39.551Z,18.35
2022-12-03T21:33:06.518Z,18.23
2022-12-03T21:35:36.478Z,17.05
2022-12-03T21:38:03.418Z,19.48
2022-12-03T21:40:29.944Z,18.92
2022-12-03T21:42:56.462Z,19.50
2022-12-03T21:45:24.888Z,18.67
2022-12-03T21:47:51.534Z,18.20
2022-12-03T21:50:18.143Z,17.25
2022-12-03T21:52:44.602Z,18.85
2022-12-03T21:55:11.117Z,18.73
2022-12-03T21:57:37.856Z,18.02
2022-12-03T22:00:08.749Z,18.55
2022-12-03T22:02:40.112Z,18.65
2022-12-03T22:05:08.170Z,18.02
2022-12-03T22:07:35.263Z,18.98
2022-12-03T22:10:02.108Z,19.60
2022-12-03T22:12:28.578Z,19.60
2022-12-03T22:14:57.033Z,18.25
2022-12-03T22:17:24.876Z,19.63
2022-12-03T22:19:51.845Z,19.10
2022-12-03T22:22:19.403Z,18.92
2022-12-03T22:24:46.579Z,19.25
2022-12-03T22:27:13.930Z,19.30
2022-12-03T22:29:40.513Z,18.83
2022-12-03T22:32:07.062Z,19.90
2022-12-03T22:34:33.607Z,19.23
2022-12-03T22:37:00.215Z,20.27
2022-12-03T22:39:27.113Z,19.63
2022-12-03T22:41:53.814Z,18.20
2022-12-03T22:44:20.280Z,20.10
2022-12-03T22:46:46.799Z,21.05
2022-12-03T22:49:13.776Z,21.15
2022-12-03T22:51:40.563Z,18.70
2022-12-03T22:54:07.087Z,21.35
2022-12-03T22:56:33.610Z,20.13
2022-12-03T22:59:00.178Z,18.60
2022-12-03T23:01:32.608Z,19.38
2022-12-03T23:03:59.833Z,18.92
2022-12-03T23:06:27.216Z,20.65
2022-12-03T23:08:54.574Z,19.60
2022-12-03T23:11:21.582Z,20.08
2022-12-03T23:13:48.426Z,20.42
2022-12-03T23:16:27.366Z,20.50
2022-12-03T23:18:54.174Z,20.48
2022-12-03T23:21:29.983Z,20.38
2022-12-03T23:23:58.445Z,21.13
2022-12-03T23:26:24.976Z,19.92
2022-12-03T23:28:51.843Z,19.65
2022-12-03T23:31:27.277Z,22.42
2022-12-03T23:33:54.913Z,21.40
2022-12-03T23:36:22.527Z,19.35
2022-12-03T23:38:49.181Z,20.17
2022-12-03T23:41:18.744Z,20.42
2022-12-03T23:43:45.494Z,22.73
2022-12-03T23:46:14.982Z,20.77
2022-12-03T23:48:42.002Z,22.15
2022-12-03T23:51:17.395Z,22.20
2022-12-03T23:53:44.755Z,21.33
2022-12-03T23:56:14.644Z,21.92
2022-12-03T23:58:41.238Z,21.65
